createdAt,value
2023-05-02T00:00:55.858Z,3.03
2023-05-02T00:03:22.813Z,3.35
2023-05-02T00:05:49.785Z,3.05
2023-05-02T00:08:16.827Z,3.33
2023-05-02T00:10:43.553Z,3.25
2023-05-02T00:13:10.399Z,2.85
2023-05-02T00:15:37.047Z,3.00
2023-05-02T00:18:03.827Z,2.83
2023-05-02T00:20:30.583Z,2.75
2023-05-02T00:22:57.375Z,2.88
2023-05-02T00:25:24.112Z,3.40
2023-05-02T00:27:51.263Z,2.85
2023-05-02T00:30:18.853Z,2.53
2023-05-02T00:32:45.899Z,3.05
2023-05-02T00:35:12.856Z,2.50
2023-05-02T00:37:39.694Z,3.20
2023-05-02T00:40:08.125Z,2.80
2023-05-02T00:42:36.339Z,3.10
2023-05-02T00:45:06.679Z,2.90
2023-05-02T00:47:34.236Z,3.38
2023-05-02T00:50:01.932Z,3.00
2023-05-02T00:52:29.333Z,2.30
2023-05-02T00:54:57.034Z,2.53
2023-05-02T00:57:23.727Z,2.83
2023-05-02T00:59:51.026Z,2.67
2023-05-02T01:02:37.951Z,2.05
2023-05-02T01:05:16.725Z,2.40
2023-05-02T01:07:51.980Z,2.05
2023-05-02T01:10:30.810Z,2.17
2023-05-02T01:13:09.538Z,2.55
2023-05-02T01:15:39.384Z,2.78
2023-05-02T01:18:09.042Z,2.28
2023-05-02T01:20:41.829Z,2.50
2023-05-02T01:23:21.924Z,2.40
2023-05-02T01:26:00.260Z,3.00
2023-05-02T01:28:31.652Z,2.25
2023-05-02T01:30:59.406Z,2.60
2023-05-02T01:33:28.381Z,2.60
2023-05-02T01:35:57.473Z,2.80
2023-05-02T01:38:26.165Z,2.08
2023-05-02T01:40:54.463Z,2.30
2023-05-02T01:43:21.984Z,2.38
2023-05-02T01:45:50.712Z,2.30
2023-05-02T01:48:19.257Z,2.10
2023-05-02T01:50:47.627Z,2.22
2023-05-02T01:53:15.382Z,2.40
2023-05-02T01:55:45.276Z,1.75
2023-05-02T01:58:14.096Z,2.75
2023-05-02T02:00:41.971Z,2.17
2023-05-02T02:03:10.424Z,2.40
2023-05-02T02:05:39.805Z,2.22
2023-05-02T02:08:06.776Z,2.33
2023-05-02T02:10:40.115Z,2.60
2023-05-02T02:13:22.136Z,2.80
2023-05-02T02:15:50.876Z,2.75
2023-05-02T02:18:25.201Z,2.47
2023-05-02T02:20:53.997Z,2.58
2023-05-02T02:23:25.833Z,1.88
2023-05-02T02:25:54.112Z,2.60
2023-05-02T02:28:20.819Z,2.45
2023-05-02T02:30:47.940Z,2.80
2023-05-02T02:33:14.706Z,2.97
2023-05-02T02:35:50.463Z,2.63
2023-05-02T02:38:31.764Z,2.40
2023-05-02T02:41:11.098Z,2.78
2023-05-02T02:44:01.435Z,2.53
2023-05-02T02:46:46.490Z,2.67
2023-05-02T02:49:26.972Z,2.90
2023-05-02T02:52:12.263Z,3.10
2023-05-02T02:54:46.971Z,2.53
2023-05-02T02:57:25.902Z,2.30
2023-05-02T03:00:13.661Z,2.97
2023-05-02T03:02:42.750Z,2.78
2023-05-02T03:05:11.097Z,2.88
2023-05-02T03:07:37.823Z,2.65
2023-05-02T03:10:05.971Z,2.72
2023-05-02T03:12:33.119Z,2.10
2023-05-02T03:15:26.275Z,3.00
2023-05-02T03:25:37.017Z,3.65
2023-05-02T03:28:03.709Z,3.05
2023-05-02T03:30:30.432Z,3.17
2023-05-02T03:32:57.152Z,3.22
2023-05-02T03:35:24.042Z,3.65
2023-05-02T03:37:50.899Z,3.88
2023-05-02T03:40:21.657Z,2.55
2023-05-02T03:45:15.259Z,3.55
2023-05-02T03:47:42.180Z,3.47
2023-05-02T03:50:09.196Z,3.28
2023-05-02T03:52:35.874Z,3.55
2023-05-02T03:55:02.523Z,4.20
2023-05-02T03:57:32.222Z,3.88
2023-05-02T03:59:59.425Z,4.13
2023-05-02T04:02:26.504Z,3.15
2023-05-02T04:04:53.232Z,4.03
2023-05-02T04:07:19.947Z,3.53
2023-05-02T04:09:46.689Z,4.00
2023-05-02T04:12:15.061Z,7.45
2023-05-02T04:14:41.699Z,7.10
2023-05-02T04:17:09.610Z,7.45
2023-05-02T04:19:36.499Z,6.05
2023-05-02T04:22:04.755Z,5.45
2023-05-02T04:24:31.386Z,4.32
2023-05-02T04:26:58.132Z,4.28
2023-05-02T04:29:24.781Z,5.15
2023-05-02T04:31:52.160Z,4.50
2023-05-02T04:34:18.781Z,5.07
2023-05-02T04:36:46.896Z,4.28
2023-05-02T04:39:13.547Z,4.22
2023-05-02T04:41:41.611Z,4.65
2023-05-02T04:44:08.413Z,3.88
2023-05-02T04:46:35.085Z,5.00
2023-05-02T04:49:02.121Z,4.20
2023-05-02T04:51:29.147Z,4.95
2023-05-02T04:53:55.785Z,4.95
2023-05-02T04:56:22.481Z,5.00
2023-05-02T04:58:49.114Z,5.72
2023-05-02T05:01:16.304Z,5.38
2023-05-02T05:03:43.370Z,5.47
2023-05-02T05:06:10.113Z,5.47
2023-05-02T05:08:37.586Z,5.63
2023-05-02T05:11:05.130Z,6.00
2023-05-02T05:13:31.968Z,5.82
2023-05-02T05:15:59.085Z,5.78
2023-05-02T05:18:26.246Z,5.05
2023-05-02T05:20:53.022Z,5.63
2023-05-02T05:23:19.648Z,5.70
2023-05-02T05:25:47.362Z,5.65
2023-05-02T05:28:16.329Z,5.55
2023-05-02T05:30:42.932Z,6.05
2023-05-02T05:33:09.658Z,5.95
2023-05-02T05:35:36.772Z,5.57
2023-05-02T05:38:06.342Z,5.18
2023-05-02T05:40:32.998Z,6.30
2023-05-02T05:42:59.585Z,5.60
2023-05-02T05:45:26.260Z,6.15
2023-05-02T05:47:55.550Z,6.50
2023-05-02T05:50:23.434Z,5.60
2023-05-02T05:52:50.074Z,6.43
2023-05-02T05:55:18.081Z,5.78
2023-05-02T05:57:44.712Z,5.68
2023-05-02T06:00:11.924Z,5.75
2023-05-02T06:02:40.384Z,5.80
2023-05-02T06:05:07.354Z,5.90
2023-05-02T06:07:35.838Z,5.97
2023-05-02T06:10:06.166Z,6.25
2023-05-02T06:12:32.825Z,6.05
2023-05-02T06:14:59.466Z,5.22
2023-05-02T06:17:26.703Z,5.03
2023-05-02T06:19:53.512Z,5.32
2023-05-02T06:22:21.018Z,5.82
2023-05-02T06:24:49.199Z,4.72
2023-05-02T06:27:16.478Z,5.47
2023-05-02T06:29:43.325Z,5.70
2023-05-02T06:32:11.577Z,4.72
2023-05-02T06:34:39.796Z,4.70
2023-05-02T06:37:06.894Z,4.95
2023-05-02T06:39:36.304Z,4.43
2023-05-02T06:42:03.270Z,5.22
2023-05-02T06:44:31.992Z,4.45
2023-05-02T06:46:58.712Z,5.00
2023-05-02T06:49:27.311Z,4.70
2023-05-02T06:51:53.959Z,5.20
2023-05-02T06:54:21.776Z,4.88
2023-05-02T06:56:48.527Z,4.75
2023-05-02T06:59:19.289Z,5.07
2023-05-02T07:01:47.868Z,4.55
2023-05-02T07:04:14.610Z,5.00
2023-05-02T07:06:42.974Z,5.03
2023-05-02T07:09:09.688Z,4.80
2023-05-02T07:11:36.325Z,4.63
2023-05-02T07:14:05.296Z,5.00
2023-05-02T07:16:32.045Z,5.03
2023-05-02T07:18:59.490Z,5.50
2023-05-02T07:21:28.176Z,5.53
2023-05-02T07:23:57.470Z,5.75
2023-05-02T07:26:27.476Z,6.25
2023-05-02T07:28:54.221Z,6.13
2023-05-02T07:31:23.390Z,5.93
2023-05-02T07:33:50.401Z,5.82
2023-05-02T07:36:19.997Z,5.80
2023-05-02T07:38:46.641Z,5.80
2023-05-02T07:41:16.364Z,6.00
2023-05-02T07:43:43.017Z,6.63
2023-05-02T07:46:09.756Z,6.15
2023-05-02T07:48:36.435Z,6.20
2023-05-02T07:51:10.730Z,6.05
2023-05-02T07:53:37.508Z,5.60
2023-05-02T07:56:08.779Z,6.53
2023-05-02T07:58:39.058Z,6.35
2023-05-02T08:01:05.749Z,5.75
2023-05-02T08:03:32.567Z,6.03
2023-05-02T08:05:59.292Z,5.93
2023-05-02T08:08:25.961Z,5.45
2023-05-02T08:10:52.639Z,6.40
2023-05-02T08:13:20.329Z,5.93
2023-05-02T08:15:46.999Z,5.85
2023-05-02T08:18:14.378Z,5.80
2023-05-02T08:20:41.161Z,5.25
2023-05-02T08:23:07.901Z,5.95
2023-05-02T08:25:34.586Z,5.57
2023-05-02T08:28:03.770Z,5.95
2023-05-02T08:30:30.403Z,5.82
2023-05-02T08:32:57.132Z,6.03
2023-05-02T08:35:23.853Z,6.10
2023-05-02T08:37:50.494Z,5.70
2023-05-02T08:40:24.632Z,5.05
2023-05-02T08:43:02.871Z,5.47
2023-05-02T08:45:49.823Z,5.93
2023-05-02T08:48:18.336Z,5.32
2023-05-02T08:50:48.125Z,5.28
2023-05-02T08:53:14.940Z,5.28
2023-05-02T08:55:44.072Z,6.15
2023-05-02T08:58:12.114Z,5.70
2023-05-02T09:00:41.040Z,5.68
2023-05-02T09:03:36.149Z,4.90
2023-05-02T09:06:08.736Z,5.72
2023-05-02T09:08:39.566Z,5.13
2023-05-02T09:11:09.589Z,5.60
2023-05-02T09:13:43.474Z,5.70
2023-05-02T09:16:11.515Z,5.82
2023-05-02T09:18:40.580Z,5.40
2023-05-02T09:21:17.957Z,5.82
2023-05-02T09:23:48.546Z,6.18
2023-05-02T09:26:22.028Z,6.22
2023-05-02T09:28:51.345Z,6.20
2023-05-02T09:31:54.914Z,5.50
2023-05-02T09:34:23.134Z,5.18
2023-05-02T09:36:51.798Z,5.72
2023-05-02T09:39:25.821Z,6.38
2023-05-02T09:41:52.976Z,6.30
2023-05-02T09:44:23.594Z,6.05
2023-05-02T09:46:55.842Z,6.63
2023-05-02T09:49:39.218Z,5.95
2023-05-02T09:52:17.373Z,5.70
2023-05-02T09:54:46.270Z,6.13
2023-05-02T09:57:13.060Z,6.10
2023-05-02T09:59:40.331Z,6.20
2023-05-02T10:02:09.612Z,6.78
2023-05-02T10:04:36.819Z,6.80
2023-05-02T10:07:05.057Z,5.78
2023-05-02T10:09:36.330Z,6.43
2023-05-02T10:12:08.205Z,5.85
2023-05-02T10:14:48.314Z,6.53
2023-05-02T10:17:37.912Z,6.30
2023-05-02T10:20:08.716Z,6.43
2023-05-02T10:22:36.642Z,6.60
2023-05-02T10:25:07.836Z,6.63
2023-05-02T10:27:37.778Z,7.40
2023-05-02T10:30:06.457Z,6.22
2023-05-02T10:32:34.552Z,6.50
2023-05-02T10:35:05.983Z,6.43
2023-05-02T10:37:39.368Z,6.55
2023-05-02T10:40:11.093Z,6.10
2023-05-02T10:42:40.144Z,6.93
2023-05-02T10:45:31.626Z,6.90
2023-05-02T10:48:24.755Z,6.82
2023-05-02T10:50:53.230Z,6.65
2023-05-02T10:53:32.054Z,7.30
2023-05-02T10:56:08.787Z,6.20
2023-05-02T10:58:36.350Z,6.45
2023-05-02T11:01:29.196Z,6.65
2023-05-02T11:03:59.835Z,7.25
2023-05-02T11:06:37.973Z,7.05
2023-05-02T11:09:16.168Z,5.60
2023-05-02T11:11:44.357Z,5.18
2023-05-02T11:14:14.463Z,5.20
2023-05-02T11:16:59.642Z,5.23
2023-05-02T11:19:33.481Z,6.07
2023-05-02T11:22:19.014Z,6.90
2023-05-02T11:24:47.857Z,5.38
2023-05-02T11:27:33.419Z,5.80
2023-05-02T11:30:02.046Z,5.88
2023-05-02T11:32:44.411Z,6.32
2023-05-02T11:35:27.457Z,6.13
2023-05-02T11:38:00.154Z,6.13
2023-05-02T11:40:28.506Z,6.30
2023-05-02T11:42:59.484Z,5.95
2023-05-02T11:48:00.213Z,5.35
2023-05-02T11:50:30.205Z,4.97
2023-05-02T11:52:57.177Z,5.57
2023-05-02T11:55:24.606Z,6.07
2023-05-02T11:57:51.497Z,4.75
2023-05-02T12:00:18.462Z,6.00
2023-05-02T12:02:47.678Z,5.03
2023-05-02T12:05:15.100Z,4.35
2023-05-02T12:07:48.976Z,5.68
2023-05-02T12:10:16.368Z,4.45
2023-05-02T12:12:45.387Z,4.80
2023-05-02T12:15:12.727Z,4.70
2023-05-02T12:17:41.963Z,4.15
2023-05-02T12:20:10.772Z,4.05
2023-05-02T12:22:37.948Z,3.83
2023-05-02T12:25:05.711Z,4.10
2023-05-02T12:27:35.153Z,4.25
2023-05-02T12:30:02.819Z,3.33
2023-05-02T12:32:31.878Z,4.53
2023-05-02T12:34:59.674Z,3.08
2023-05-02T12:37:27.676Z,4.68
2023-05-02T12:39:55.873Z,4.28
2023-05-02T12:42:25.480Z,4.57
2023-05-02T12:44:53.208Z,3.72
2023-05-02T12:47:22.488Z,3.97
2023-05-02T12:49:51.043Z,4.07
2023-05-02T12:52:19.105Z,3.42
2023-05-02T12:54:46.626Z,3.50
2023-05-02T12:57:26.397Z,3.63
2023-05-02T12:59:56.514Z,3.45
2023-05-02T13:02:23.179Z,3.60
2023-05-02T13:04:49.934Z,3.65
2023-05-02T13:07:16.553Z,3.50
2023-05-02T13:09:43.197Z,3.35
2023-05-02T13:12:09.994Z,3.28
2023-05-02T13:14:36.793Z,3.28
2023-05-02T13:17:06.283Z,3.70
2023-05-02T13:19:32.938Z,3.42
2023-05-02T13:21:59.814Z,3.35
2023-05-02T13:24:26.675Z,3.38
2023-05-02T13:26:53.302Z,3.05
2023-05-02T13:29:19.945Z,3.35
2023-05-02T13:31:47.341Z,3.30
2023-05-02T13:34:13.954Z,2.80
2023-05-02T13:36:45.992Z,3.35
2023-05-02T13:39:13.782Z,3.25
2023-05-02T13:41:41.389Z,3.28
2023-05-02T13:44:09.236Z,3.22
2023-05-02T13:46:39.425Z,3.10
2023-05-02T13:49:06.320Z,3.38
2023-05-02T13:51:33.015Z,2.80
2023-05-02T13:54:00.380Z,3.67
2023-05-02T13:56:27.863Z,3.65
2023-05-02T13:58:54.568Z,3.45
2023-05-02T14:01:21.263Z,3.05
2023-05-02T14:03:49.758Z,3.40
2023-05-02T14:06:16.528Z,3.10
2023-05-02T14:08:43.788Z,3.20
2023-05-02T14:11:11.284Z,3.53
2023-05-02T14:13:38.039Z,2.90
2023-05-02T14:16:04.975Z,3.50
2023-05-02T14:18:31.634Z,3.20
2023-05-02T14:20:59.997Z,3.15
2023-05-02T14:23:30.806Z,3.13
2023-05-02T14:25:57.682Z,2.85
2023-05-02T14:28:27.067Z,3.30
2023-05-02T14:30:53.713Z,3.58
2023-05-02T14:33:21.352Z,3.20
2023-05-02T14:35:49.908Z,3.03
2023-05-02T14:38:16.913Z,3.30
2023-05-02T14:40:43.618Z,3.00
2023-05-02T14:43:13.828Z,2.92
2023-05-02T14:45:40.431Z,3.10
2023-05-02T14:48:09.776Z,2.60
2023-05-02T14:50:39.284Z,3.38
2023-05-02T14:53:06.292Z,3.65
2023-05-02T14:55:38.642Z,3.50
2023-05-02T14:58:10.435Z,3.30
2023-05-02T15:00:38.231Z,3.95
2023-05-02T15:03:08.495Z,2.97
2023-05-02T15:05:36.910Z,3.67
2023-05-02T15:08:03.763Z,3.50
2023-05-02T15:10:33.948Z,3.80
2023-05-02T15:13:01.022Z,3.07
2023-05-02T15:15:27.806Z,4.18
2023-05-02T15:17:54.465Z,4.47
2023-05-02T15:20:21.221Z,5.30
2023-05-02T15:22:47.837Z,4.25
2023-05-02T15:25:14.496Z,3.75
2023-05-02T15:27:43.508Z,4.13
2023-05-02T15:30:10.611Z,4.03
2023-05-02T15:32:37.331Z,4.18
2023-05-02T15:35:07.817Z,3.78
2023-05-02T15:37:34.997Z,4.07
2023-05-02T15:40:03.973Z,3.80
2023-05-02T15:42:31.470Z,3.80
2023-05-02T15:44:58.160Z,4.07
2023-05-02T15:47:25.063Z,3.50
2023-05-02T15:49:53.916Z,3.58
2023-05-02T15:52:21.154Z,3.17
2023-05-02T15:54:47.792Z,3.25
2023-05-02T15:57:16.235Z,3.75
2023-05-02T15:59:43.236Z,4.10
2023-05-02T16:02:10.005Z,3.42
2023-05-02T16:04:36.757Z,3.20
2023-05-02T16:07:05.744Z,3.45
2023-05-02T16:09:32.454Z,3.25
2023-05-02T16:12:00.767Z,3.50
2023-05-02T16:14:30.387Z,3.72
2023-05-02T16:16:58.537Z,3.83
2023-05-02T16:19:25.210Z,3.80
2023-05-02T16:21:51.968Z,3.80
2023-05-02T16:24:20.180Z,3.40
2023-05-02T16:26:46.905Z,3.70
2023-05-02T16:29:13.585Z,3.65
2023-05-02T16:31:41.730Z,3.70
2023-05-02T16:34:09.661Z,3.92
2023-05-02T16:36:36.367Z,4.65
2023-05-02T16:39:03.033Z,3.97
2023-05-02T16:41:29.668Z,4.05
2023-05-02T16:43:56.265Z,4.85
2023-05-02T16:46:23.206Z,4.88
2023-05-02T16:48:51.840Z,4.30
2023-05-02T16:51:18.477Z,4.03
2023-05-02T16:53:46.157Z,4.55
2023-05-02T16:56:12.862Z,4.75
2023-05-02T16:58:39.550Z,5.55
2023-05-02T17:01:06.325Z,4.70
2023-05-02T17:03:33.389Z,4.28
2023-05-02T17:06:01.622Z,4.63
2023-05-02T17:08:28.667Z,4.38
2023-05-02T17:10:56.122Z,4.78
2023-05-02T17:13:23.076Z,3.97
2023-05-02T17:15:49.958Z,4.45
2023-05-02T17:18:18.248Z,4.00
2023-05-02T17:20:49.366Z,3.58
2023-05-02T17:23:16.152Z,4.45
2023-05-02T17:25:42.927Z,4.45
2023-05-02T17:28:10.069Z,4.70
2023-05-02T17:30:36.920Z,4.57
2023-05-02T17:33:04.021Z,4.53
2023-05-02T17:35:31.690Z,5.72
2023-05-02T17:37:58.884Z,6.32
2023-05-02T17:40:25.556Z,5.35
2023-05-02T17:42:54.072Z,5.55
2023-05-02T17:45:20.708Z,5.82
2023-05-02T17:47:47.494Z,4.65
2023-05-02T17:50:14.257Z,4.40
2023-05-02T17:52:40.985Z,5.30
2023-05-02T17:55:08.739Z,4.38
2023-05-02T17:57:38.213Z,5.22
2023-05-02T18:00:09.369Z,3.90
2023-05-02T18:02:39.869Z,4.45
2023-05-02T18:05:07.837Z,4.30
2023-05-02T18:07:34.467Z,4.60
2023-05-02T18:10:04.208Z,4.00
2023-05-02T18:12:34.019Z,4.57
2023-05-02T18:15:02.029Z,4.30
2023-05-02T18:17:29.297Z,4.40
2023-05-02T18:19:55.984Z,4.55
2023-05-02T18:22:22.715Z,5.13
2023-05-02T18:24:50.142Z,4.45
2023-05-02T18:27:19.410Z,5.18
2023-05-02T18:29:46.133Z,4.95
2023-05-02T18:32:14.916Z,4.75
2023-05-02T18:34:42.255Z,4.68
2023-05-02T18:37:09.678Z,5.18
2023-05-02T18:39:36.638Z,4.88
2023-05-02T18:42:04.323Z,4.45
2023-05-02T18:44:31.333Z,5.43
2023-05-02T18:46:58.717Z,5.13
2023-05-02T18:49:26.353Z,5.55
2023-05-02T18:51:54.318Z,5.40
2023-05-02T18:54:23.140Z,5.53
2023-05-02T18:56:49.790Z,5.40
2023-05-02T18:59:16.699Z,5.40
2023-05-02T19:01:43.406Z,6.18
2023-05-02T19:04:10.124Z,5.82
2023-05-02T19:06:36.838Z,5.47
2023-05-02T19:09:05.354Z,5.90
2023-05-02T19:11:31.984Z,6.05
2023-05-02T19:14:00.568Z,7.57
2023-05-02T19:16:29.063Z,5.90
2023-05-02T19:18:56.979Z,6.80
2023-05-02T19:21:23.867Z,10.25
2023-05-02T19:23:51.552Z,8.68
2023-05-02T19:26:20.469Z,6.47
2023-05-02T19:28:47.198Z,7.05
2023-05-02T19:31:20.584Z,6.80
2023-05-02T19:33:54.733Z,7.53
2023-05-02T19:36:23.757Z,7.20
2023-05-02T19:38:54.629Z,7.70
2023-05-02T19:41:24.682Z,7.28
2023-05-02T19:43:52.002Z,7.93
2023-05-02T19:46:19.153Z,7.45
2023-05-02T19:48:48.206Z,7.28
2023-05-02T19:51:14.903Z,8.13
2023-05-02T19:53:43.391Z,8.25
2023-05-02T19:56:12.275Z,7.20
2023-05-02T19:58:40.457Z,7.13
2023-05-02T20:01:07.991Z,7.72
2023-05-02T20:03:35.304Z,7.32
2023-05-02T20:06:02.621Z,7.80
2023-05-02T20:08:31.302Z,8.02
2023-05-02T20:10:58.375Z,7.65
2023-05-02T20:13:25.152Z,7.20
2023-05-02T20:15:54.499Z,6.20
2023-05-02T20:18:21.231Z,6.50
2023-05-02T20:20:47.877Z,6.28
2023-05-02T20:23:15.170Z,7.22
2023-05-02T20:25:42.855Z,8.20
2023-05-02T20:28:09.978Z,7.03
2023-05-02T20:30:38.990Z,6.60
2023-05-02T20:33:14.974Z,7.75
2023-05-02T20:35:43.133Z,7.63
2023-05-02T20:38:09.900Z,6.65
2023-05-02T20:40:39.780Z,6.43
2023-05-02T20:43:06.578Z,7.47
2023-05-02T20:45:33.388Z,7.95
2023-05-02T20:48:00.570Z,8.48
2023-05-02T20:50:28.101Z,7.68
2023-05-02T20:52:55.262Z,7.75
2023-05-02T20:55:22.950Z,7.50
2023-05-02T20:57:53.136Z,7.82
2023-05-02T21:00:22.396Z,8.50
2023-05-02T21:02:49.597Z,7.60
2023-05-02T21:05:16.650Z,8.00
2023-05-02T21:07:44.651Z,8.05
2023-05-02T21:10:13.039Z,8.20
2023-05-02T21:12:39.784Z,8.07
2023-05-02T21:15:09.327Z,8.15
2023-05-02T21:17:38.932Z,8.40
2023-05-02T21:20:06.814Z,8.27
2023-05-02T21:22:34.803Z,8.30
2023-05-02T21:25:01.436Z,9.38
2023-05-02T21:27:28.146Z,8.43
2023-05-02T21:29:54.849Z,9.25
2023-05-02T21:32:22.429Z,8.20
2023-05-02T21:34:49.315Z,7.70
2023-05-02T21:37:15.939Z,8.35
2023-05-02T21:39:42.593Z,7.65
2023-05-02T21:42:09.194Z,8.32
2023-05-02T21:44:36.036Z,7.88
2023-05-02T21:47:03.439Z,8.77
2023-05-02T21:49:31.112Z,7.65
2023-05-02T21:51:58.459Z,8.70
2023-05-02T21:54:25.330Z,8.02
2023-05-02T21:56:54.035Z,7.78
2023-05-02T21:59:20.974Z,7.43
2023-05-02T22:01:47.644Z,8.75
2023-05-02T22:04:14.377Z,7.72
2023-05-02T22:06:41.405Z,7.78
2023-05-02T22:09:10.261Z,8.63
2023-05-02T22:11:37.132Z,7.95
2023-05-02T22:14:04.464Z,7.78
2023-05-02T22:16:31.199Z,8.73
2023-05-02T22:18:58.067Z,8.45
2023-05-02T22:21:25.086Z,7.90
2023-05-02T22:23:51.745Z,8.40
2023-05-02T22:26:18.396Z,9.02
2023-05-02T22:28:45.142Z,8.23
2023-05-02T22:31:11.754Z,8.85
2023-05-02T22:33:38.384Z,8.57
2023-05-02T22:36:05.180Z,8.10
2023-05-02T22:38:31.774Z,9.00
2023-05-02T22:40:58.464Z,8.35
2023-05-02T22:43:25.065Z,8.57
2023-05-02T22:45:51.996Z,8.52
2023-05-02T22:48:18.976Z,8.60
2023-05-02T22:50:47.747Z,8.73
2023-05-02T22:53:14.720Z,8.02
2023-05-02T22:55:41.520Z,8.68
2023-05-02T22:58:08.290Z,8.63
2023-05-02T23:00:34.920Z,7.95
2023-05-02T23:03:02.497Z,8.55
2023-05-02T23:05:29.750Z,8.27
2023-05-02T23:07:56.568Z,8.02
2023-05-02T23:10:23.221Z,8.13
2023-05-02T23:12:50.025Z,7.63
2023-05-02T23:15:16.677Z,9.40
2023-05-02T23:17:43.325Z,8.07
2023-05-02T23:20:10.808Z,8.02
2023-05-02T23:22:43.791Z,8.90
2023-05-02T23:25:12.306Z,8.88
2023-05-02T23:27:38.982Z,7.63
2023-05-02T23:30:07.861Z,8.38
2023-05-02T23:32:34.571Z,8.25
2023-05-02T23:35:01.755Z,8.15
2023-05-02T23:37:28.535Z,9.52
2023-05-02T23:39:55.442Z,8.45
2023-05-02T23:42:22.073Z,9.43
2023-05-02T23:44:49.390Z,8.63
2023-05-02T23:47:16.091Z,8.88
2023-05-02T23:49:42.788Z,7.95
2023-05-02T23:52:09.581Z,8.20
2023-05-02T23:54:36.219Z,8.90
2023-05-02T23:57:03.245Z,8.57
2023-05-02T23:59:30.034Z,9.18
